Terminal Aerodrome Forecast
Issued by NWS

Home | Current Version | Previous Version | Text Only | Print | Product List | Glossary On
Versions: 1 2 3 4 5 6 7 8 9 10 11
000
FTUS41 KBTV 282320
TAFMPV
TAF
KMPV 282320Z 0100/0124 VRB02KT P6SM SKC
     FM011000 VRB02KT P6SM BKN150
     FM011500 18009KT P6SM OVC060
     FM011900 18010KT 2SM -SN BR BKN025 OVC060=

USA.gov is the U.S. government's official web portal to all federal, state and local government web resources and services.